sensor_id;sensor_type;location;lat;lon;timestamp;P1;durP1;ratioP1;P2;durP2;ratioP2
75928;SDS011;64606;44.062;2.986;2023-07-28T00:01:13;4.05;;;1.60;;
75928;SDS011;64606;44.062;2.986;2023-07-28T00:03:39;4.13;;;1.70;;
75928;SDS011;64606;44.062;2.986;2023-07-28T00:06:05;3.80;;;1.63;;
75928;SDS011;64606;44.062;2.986;2023-07-28T00:08:31;3.97;;;1.63;;
75928;SDS011;64606;44.062;2.986;2023-07-28T00:10:58;2.70;;;1.60;;
75928;SDS011;64606;44.062;2.986;2023-07-28T00:13:24;2.13;;;1.50;;
75928;SDS011;64606;44.062;2.986;2023-07-28T00:15:50;3.08;;;1.52;;
75928;SDS011;64606;44.062;2.986;2023-07-28T00:18:16;4.32;;;1.70;;
75928;SDS011;64606;44.062;2.986;2023-07-28T00:20:43;3.53;;;1.58;;
75928;SDS011;64606;44.062;2.986;2023-07-28T00:23:09;4.13;;;1.70;;
75928;SDS011;64606;44.062;2.986;2023-07-28T00:25:35;4.45;;;1.60;;
75928;SDS011;64606;44.062;2.986;2023-07-28T00:28:02;1.77;;;1.35;;
75928;SDS011;64606;44.062;2.986;2023-07-28T00:30:28;2.97;;;1.63;;
75928;SDS011;64606;44.062;2.986;2023-07-28T00:32:56;2.40;;;1.60;;
75928;SDS011;64606;44.062;2.986;2023-07-28T00:35:22;3.42;;;1.90;;
75928;SDS011;64606;44.062;2.986;2023-07-28T00:37:48;5.35;;;1.73;;
75928;SDS011;64606;44.062;2.986;2023-07-28T00:40:14;3.30;;;1.50;;
75928;SDS011;64606;44.062;2.986;2023-07-28T00:42:40;3.17;;;1.60;;
75928;SDS011;64606;44.062;2.986;2023-07-28T00:45:06;3.50;;;1.83;;
75928;SDS011;64606;44.062;2.986;2023-07-28T00:47:33;4.72;;;1.83;;
75928;SDS011;64606;44.062;2.986;2023-07-28T00:49:59;2.50;;;1.48;;
75928;SDS011;64606;44.062;2.986;2023-07-28T00:52:25;3.40;;;1.60;;
75928;SDS011;64606;44.062;2.986;2023-07-28T00:54:51;4.25;;;1.90;;
75928;SDS011;64606;44.062;2.986;2023-07-28T00:57:17;2.67;;;1.60;;
75928;SDS011;64606;44.062;2.986;2023-07-28T00:59:44;2.97;;;1.67;;
75928;SDS011;64606;44.062;2.986;2023-07-28T01:02:10;4.25;;;1.40;;
75928;SDS011;64606;44.062;2.986;2023-07-28T01:04:36;2.28;;;1.65;;
75928;SDS011;64606;44.062;2.986;2023-07-28T01:07:10;2.47;;;1.80;;
75928;SDS011;64606;44.062;2.986;2023-07-28T01:09:43;3.70;;;2.00;;
75928;SDS011;64606;44.062;2.986;2023-07-28T01:12:12;2.97;;;1.73;;
75928;SDS011;64606;44.062;2.986;2023-07-28T01:14:38;3.40;;;1.77;;
75928;SDS011;64606;44.062;2.986;2023-07-28T01:17:04;3.72;;;2.05;;
75928;SDS011;64606;44.062;2.986;2023-07-28T01:19:30;2.10;;;1.50;;
75928;SDS011;64606;44.062;2.986;2023-07-28T01:22:01;4.25;;;1.50;;
75928;SDS011;64606;44.062;2.986;2023-07-28T01:24:37;3.90;;;1.80;;
75928;SDS011;64606;44.062;2.986;2023-07-28T01:27:08;2.97;;;1.80;;
75928;SDS011;64606;44.062;2.986;2023-07-28T01:29:34;2.90;;;1.80;;
75928;SDS011;64606;44.062;2.986;2023-07-28T01:32:01;2.33;;;1.70;;
75928;SDS011;64606;44.062;2.986;2023-07-28T01:34:27;3.45;;;1.63;;
75928;SDS011;64606;44.062;2.986;2023-07-28T01:36:53;3.13;;;1.63;;
75928;SDS011;64606;44.062;2.986;2023-07-28T01:39:19;2.35;;;1.70;;
75928;SDS011;64606;44.062;2.986;2023-07-28T01:41:45;5.32;;;2.00;;
75928;SDS011;64606;44.062;2.986;2023-07-28T01:44:11;4.47;;;1.70;;
75928;SDS011;64606;44.062;2.986;2023-07-28T01:46:38;2.17;;;1.77;;
75928;SDS011;64606;44.062;2.986;2023-07-28T01:49:04;3.17;;;1.60;;
75928;SDS011;64606;44.062;2.986;2023-07-28T01:51:30;6.15;;;1.73;;
75928;SDS011;64606;44.062;2.986;2023-07-28T01:53:56;2.45;;;1.80;;
75928;SDS011;64606;44.062;2.986;2023-07-28T01:56:22;3.20;;;1.77;;
75928;SDS011;64606;44.062;2.986;2023-07-28T01:58:49;4.18;;;1.83;;
75928;SDS011;64606;44.062;2.986;2023-07-28T02:01:15;2.80;;;1.75;;
75928;SDS011;64606;44.062;2.986;2023-07-28T02:03:41;5.10;;;1.98;;
75928;SDS011;64606;44.062;2.986;2023-07-28T02:06:07;3.15;;;1.90;;
75928;SDS011;64606;44.062;2.986;2023-07-28T02:08:33;2.38;;;1.70;;
75928;SDS011;64606;44.062;2.986;2023-07-28T02:10:59;3.05;;;1.60;;
75928;SDS011;64606;44.062;2.986;2023-07-28T02:13:25;2.67;;;1.65;;
75928;SDS011;64606;44.062;2.986;2023-07-28T02:15:51;3.60;;;1.55;;
75928;SDS011;64606;44.062;2.986;2023-07-28T02:18:17;2.65;;;1.50;;
75928;SDS011;64606;44.062;2.986;2023-07-28T02:20:43;3.78;;;1.90;;
75928;SDS011;64606;44.062;2.986;2023-07-28T02:23:09;3.53;;;1.70;;
75928;SDS011;64606;44.062;2.986;2023-07-28T02:25:36;2.75;;;1.60;;
75928;SDS011;64606;44.062;2.986;2023-07-28T02:28:03;3.50;;;1.88;;
75928;SDS011;64606;44.062;2.986;2023-07-28T02:30:29;4.18;;;1.75;;
75928;SDS011;64606;44.062;2.986;2023-07-28T02:32:55;2.25;;;1.63;;
75928;SDS011;64606;44.062;2.986;2023-07-28T02:35:21;3.03;;;1.85;;
75928;SDS011;64606;44.062;2.986;2023-07-28T02:37:47;3.10;;;2.00;;
75928;SDS011;64606;44.062;2.986;2023-07-28T02:40:14;7.90;;;1.85;;
75928;SDS011;64606;44.062;2.986;2023-07-28T02:42:40;3.03;;;1.80;;
75928;SDS011;64606;44.062;2.986;2023-07-28T02:45:06;6.25;;;1.85;;
75928;SDS011;64606;44.062;2.986;2023-07-28T02:47:32;4.32;;;1.88;;
75928;SDS011;64606;44.062;2.986;2023-07-28T02:49:58;2.78;;;1.80;;
75928;SDS011;64606;44.062;2.986;2023-07-28T02:52:24;3.03;;;1.80;;
75928;SDS011;64606;44.062;2.986;2023-07-28T02:54:51;3.85;;;1.60;;
75928;SDS011;64606;44.062;2.986;2023-07-28T02:57:17;2.40;;;1.55;;
75928;SDS011;64606;44.062;2.986;2023-07-28T02:59:43;3.53;;;1.73;;
75928;SDS011;64606;44.062;2.986;2023-07-28T03:02:09;3.17;;;1.75;;
75928;SDS011;64606;44.062;2.986;2023-07-28T03:04:35;3.08;;;1.55;;
75928;SDS011;64606;44.062;2.986;2023-07-28T03:07:01;4.32;;;1.90;;
75928;SDS011;64606;44.062;2.986;2023-07-28T03:09:27;3.33;;;2.00;;
75928;SDS011;64606;44.062;2.986;2023-07-28T03:11:54;3.83;;;1.77;;
75928;SDS011;64606;44.062;2.986;2023-07-28T03:14:20;2.50;;;1.65;;
75928;SDS011;64606;44.062;2.986;2023-07-28T03:16:46;5.43;;;2.35;;
75928;SDS011;64606;44.062;2.986;2023-07-28T03:19:12;3.90;;;1.73;;
75928;SDS011;64606;44.062;2.986;2023-07-28T03:21:38;2.60;;;1.80;;
75928;SDS011;64606;44.062;2.986;2023-07-28T03:24:05;3.78;;;1.80;;
75928;SDS011;64606;44.062;2.986;2023-07-28T03:26:31;3.17;;;1.75;;
75928;SDS011;64606;44.062;2.986;2023-07-28T03:28:57;2.78;;;1.75;;
75928;SDS011;64606;44.062;2.986;2023-07-28T03:31:23;4.25;;;1.90;;
75928;SDS011;64606;44.062;2.986;2023-07-28T03:33:49;2.40;;;1.65;;
75928;SDS011;64606;44.062;2.986;2023-07-28T03:36:15;2.75;;;1.63;;
75928;SDS011;64606;44.062;2.986;2023-07-28T03:38:42;3.75;;;1.83;;
75928;SDS011;64606;44.062;2.986;2023-07-28T03:41:08;2.63;;;1.50;;
75928;SDS011;64606;44.062;2.986;2023-07-28T03:43:34;3.33;;;1.77;;
75928;SDS011;64606;44.062;2.986;2023-07-28T03:46:01;3.55;;;1.67;;
75928;SDS011;64606;44.062;2.986;2023-07-28T03:48:27;3.00;;;1.70;;
75928;SDS011;64606;44.062;2.986;2023-07-28T03:50:53;3.47;;;1.90;;
75928;SDS011;64606;44.062;2.986;2023-07-28T03:53:19;4.72;;;2.20;;
75928;SDS011;64606;44.062;2.986;2023-07-28T03:55:45;4.55;;;2.03;;
75928;SDS011;64606;44.062;2.986;2023-07-28T03:58:11;3.88;;;2.05;;
75928;SDS011;64606;44.062;2.986;2023-07-28T04:00:37;4.07;;;1.85;;
75928;SDS011;64606;44.062;2.986;2023-07-28T04:03:03;3.85;;;1.92;;
75928;SDS011;64606;44.062;2.986;2023-07-28T04:05:29;4.78;;;2.00;;
75928;SDS011;64606;44.062;2.986;2023-07-28T04:07:55;5.88;;;2.08;;
75928;SDS011;64606;44.062;2.986;2023-07-28T04:10:21;7.55;;;2.55;;
75928;SDS011;64606;44.062;2.986;2023-07-28T04:12:48;6.95;;;2.72;;
75928;SDS011;64606;44.062;2.986;2023-07-28T04:15:14;4.05;;;1.95;;
75928;SDS011;64606;44.062;2.986;2023-07-28T04:17:40;2.78;;;1.50;;
75928;SDS011;64606;44.062;2.986;2023-07-28T04:20:06;5.43;;;1.88;;
75928;SDS011;64606;44.062;2.986;2023-07-28T04:22:33;2.45;;;1.70;;
75928;SDS011;64606;44.062;2.986;2023-07-28T04:24:59;3.60;;;1.88;;
75928;SDS011;64606;44.062;2.986;2023-07-28T04:27:25;12.20;;;3.05;;
75928;SDS011;64606;44.062;2.986;2023-07-28T04:29:51;7.95;;;2.67;;
75928;SDS011;64606;44.062;2.986;2023-07-28T04:32:17;3.78;;;2.00;;
75928;SDS011;64606;44.062;2.986;2023-07-28T04:34:43;3.47;;;1.95;;
75928;SDS011;64606;44.062;2.986;2023-07-28T04:37:09;5.55;;;2.40;;
75928;SDS011;64606;44.062;2.986;2023-07-28T04:39:35;3.58;;;2.30;;
75928;SDS011;64606;44.062;2.986;2023-07-28T04:42:01;5.70;;;2.20;;
75928;SDS011;64606;44.062;2.986;2023-07-28T04:44:27;7.28;;;1.90;;
75928;SDS011;64606;44.062;2.986;2023-07-28T04:46:54;4.05;;;2.30;;
75928;SDS011;64606;44.062;2.986;2023-07-28T04:49:20;5.13;;;2.30;;
75928;SDS011;64606;44.062;2.986;2023-07-28T04:51:46;4.53;;;2.17;;
75928;SDS011;64606;44.062;2.986;2023-07-28T04:54:12;3.03;;;2.17;;
75928;SDS011;64606;44.062;2.986;2023-07-28T04:56:38;6.35;;;2.55;;
75928;SDS011;64606;44.062;2.986;2023-07-28T04:59:04;5.18;;;2.20;;
75928;SDS011;64606;44.062;2.986;2023-07-28T05:01:32;3.58;;;1.90;;
75928;SDS011;64606;44.062;2.986;2023-07-28T05:03:58;3.60;;;1.80;;
75928;SDS011;64606;44.062;2.986;2023-07-28T05:06:25;3.35;;;2.00;;
75928;SDS011;64606;44.062;2.986;2023-07-28T05:08:51;5.25;;;1.95;;
75928;SDS011;64606;44.062;2.986;2023-07-28T05:11:17;5.43;;;2.25;;
75928;SDS011;64606;44.062;2.986;2023-07-28T05:13:43;4.47;;;2.17;;
75928;SDS011;64606;44.062;2.986;2023-07-28T05:16:09;11.40;;;1.98;;
75928;SDS011;64606;44.062;2.986;2023-07-28T05:18:35;4.07;;;2.13;;
75928;SDS011;64606;44.062;2.986;2023-07-28T05:21:02;4.50;;;2.10;;
75928;SDS011;64606;44.062;2.986;2023-07-28T05:23:28;4.18;;;2.13;;
75928;SDS011;64606;44.062;2.986;2023-07-28T05:25:54;3.30;;;2.00;;
75928;SDS011;64606;44.062;2.986;2023-07-28T05:28:20;4.13;;;1.90;;
75928;SDS011;64606;44.062;2.986;2023-07-28T05:30:46;3.45;;;2.17;;
75928;SDS011;64606;44.062;2.986;2023-07-28T05:33:12;4.35;;;2.00;;
75928;SDS011;64606;44.062;2.986;2023-07-28T05:35:38;3.65;;;1.80;;
75928;SDS011;64606;44.062;2.986;2023-07-28T05:38:04;3.80;;;1.85;;
75928;SDS011;64606;44.062;2.986;2023-07-28T05:40:31;3.92;;;1.90;;
75928;SDS011;64606;44.062;2.986;2023-07-28T05:42:57;5.00;;;2.10;;
75928;SDS011;64606;44.062;2.986;2023-07-28T05:45:23;3.45;;;1.88;;
75928;SDS011;64606;44.062;2.986;2023-07-28T05:47:49;2.97;;;1.70;;
75928;SDS011;64606;44.062;2.986;2023-07-28T05:50:15;7.15;;;2.13;;
75928;SDS011;64606;44.062;2.986;2023-07-28T05:52:41;3.58;;;1.95;;
75928;SDS011;64606;44.062;2.986;2023-07-28T05:55:07;2.83;;;1.58;;
75928;SDS011;64606;44.062;2.986;2023-07-28T05:57:34;2.75;;;1.90;;
75928;SDS011;64606;44.062;2.986;2023-07-28T06:00:00;7.85;;;2.20;;
75928;SDS011;64606;44.062;2.986;2023-07-28T06:02:26;4.32;;;2.30;;
75928;SDS011;64606;44.062;2.986;2023-07-28T06:04:52;3.55;;;1.88;;
75928;SDS011;64606;44.062;2.986;2023-07-28T06:07:18;2.80;;;1.85;;
75928;SDS011;64606;44.062;2.986;2023-07-28T06:09:45;3.72;;;2.35;;
75928;SDS011;64606;44.062;2.986;2023-07-28T06:12:11;3.78;;;1.85;;
75928;SDS011;64606;44.062;2.986;2023-07-28T06:14:38;8.15;;;1.90;;
75928;SDS011;64606;44.062;2.986;2023-07-28T06:17:04;4.20;;;2.10;;
75928;SDS011;64606;44.062;2.986;2023-07-28T06:19:31;4.68;;;1.85;;
75928;SDS011;64606;44.062;2.986;2023-07-28T06:21:57;3.03;;;1.75;;
75928;SDS011;64606;44.062;2.986;2023-07-28T06:24:23;4.22;;;2.20;;
75928;SDS011;64606;44.062;2.986;2023-07-28T06:26:49;4.53;;;2.60;;
75928;SDS011;64606;44.062;2.986;2023-07-28T06:29:15;4.80;;;2.05;;
75928;SDS011;64606;44.062;2.986;2023-07-28T06:31:41;4.80;;;2.00;;
75928;SDS011;64606;44.062;2.986;2023-07-28T06:34:07;4.05;;;2.22;;
75928;SDS011;64606;44.062;2.986;2023-07-28T06:36:34;4.25;;;2.00;;
75928;SDS011;64606;44.062;2.986;2023-07-28T06:39:00;3.38;;;2.00;;
75928;SDS011;64606;44.062;2.986;2023-07-28T06:41:26;3.60;;;2.13;;
75928;SDS011;64606;44.062;2.986;2023-07-28T06:43:52;3.33;;;2.20;;
75928;SDS011;64606;44.062;2.986;2023-07-28T06:46:18;3.63;;;1.83;;
75928;SDS011;64606;44.062;2.986;2023-07-28T06:48:44;4.18;;;1.90;;
75928;SDS011;64606;44.062;2.986;2023-07-28T06:51:10;2.83;;;1.73;;
75928;SDS011;64606;44.062;2.986;2023-07-28T06:53:36;2.80;;;1.85;;
75928;SDS011;64606;44.062;2.986;2023-07-28T06:56:02;3.55;;;1.90;;
75928;SDS011;64606;44.062;2.986;2023-07-28T06:58:29;3.05;;;1.75;;
75928;SDS011;64606;44.062;2.986;2023-07-28T07:00:55;4.65;;;2.28;;
75928;SDS011;64606;44.062;2.986;2023-07-28T07:03:22;2.88;;;1.70;;
75928;SDS011;64606;44.062;2.986;2023-07-28T07:05:49;2.60;;;1.80;;
75928;SDS011;64606;44.062;2.986;2023-07-28T07:08:15;2.13;;;1.70;;
75928;SDS011;64606;44.062;2.986;2023-07-28T07:10:47;3.20;;;1.90;;
75928;SDS011;64606;44.062;2.986;2023-07-28T07:13:13;3.40;;;1.88;;
75928;SDS011;64606;44.062;2.986;2023-07-28T07:15:39;5.00;;;2.00;;
75928;SDS011;64606;44.062;2.986;2023-07-28T07:18:07;6.15;;;2.80;;
75928;SDS011;64606;44.062;2.986;2023-07-28T07:20:36;6.47;;;2.08;;
75928;SDS011;64606;44.062;2.986;2023-07-28T07:23:03;3.47;;;2.47;;
75928;SDS011;64606;44.062;2.986;2023-07-28T07:25:29;5.70;;;2.60;;
75928;SDS011;64606;44.062;2.986;2023-07-28T07:27:55;3.65;;;2.38;;
75928;SDS011;64606;44.062;2.986;2023-07-28T07:30:21;6.05;;;2.50;;
75928;SDS011;64606;44.062;2.986;2023-07-28T07:32:47;4.65;;;2.17;;
75928;SDS011;64606;44.062;2.986;2023-07-28T07:35:14;2.85;;;2.20;;
75928;SDS011;64606;44.062;2.986;2023-07-28T07:37:40;5.47;;;2.13;;
75928;SDS011;64606;44.062;2.986;2023-07-28T07:40:06;4.80;;;2.20;;
75928;SDS011;64606;44.062;2.986;2023-07-28T07:47:33;6.45;;;2.13;;
75928;SDS011;64606;44.062;2.986;2023-07-28T07:49:59;7.00;;;2.33;;
75928;SDS011;64606;44.062;2.986;2023-07-28T07:52:26;7.93;;;2.30;;
75928;SDS011;64606;44.062;2.986;2023-07-28T07:54:52;4.28;;;2.55;;
75928;SDS011;64606;44.062;2.986;2023-07-28T07:57:18;3.47;;;2.30;;
75928;SDS011;64606;44.062;2.986;2023-07-28T07:59:44;4.65;;;2.40;;
75928;SDS011;64606;44.062;2.986;2023-07-28T08:02:10;5.05;;;2.42;;
75928;SDS011;64606;44.062;2.986;2023-07-28T08:04:36;2.92;;;2.13;;
75928;SDS011;64606;44.062;2.986;2023-07-28T08:07:02;5.85;;;2.40;;
75928;SDS011;64606;44.062;2.986;2023-07-28T08:09:30;4.72;;;2.53;;
75928;SDS011;64606;44.062;2.986;2023-07-28T08:11:56;3.55;;;2.40;;
75928;SDS011;64606;44.062;2.986;2023-07-28T08:14:22;5.10;;;2.20;;
75928;SDS011;64606;44.062;2.986;2023-07-28T08:16:48;5.85;;;2.38;;
75928;SDS011;64606;44.062;2.986;2023-07-28T08:19:14;8.13;;;2.40;;
75928;SDS011;64606;44.062;2.986;2023-07-28T08:21:41;3.53;;;2.22;;
75928;SDS011;64606;44.062;2.986;2023-07-28T08:24:07;3.90;;;2.05;;
75928;SDS011;64606;44.062;2.986;2023-07-28T08:26:33;5.20;;;2.55;;
75928;SDS011;64606;44.062;2.986;2023-07-28T08:28:59;3.85;;;2.28;;
75928;SDS011;64606;44.062;2.986;2023-07-28T08:31:26;3.58;;;2.10;;
75928;SDS011;64606;44.062;2.986;2023-07-28T08:33:52;5.63;;;2.28;;
75928;SDS011;64606;44.062;2.986;2023-07-28T08:36:18;4.57;;;2.60;;
75928;SDS011;64606;44.062;2.986;2023-07-28T08:38:44;4.70;;;2.28;;
75928;SDS011;64606;44.062;2.986;2023-07-28T08:41:10;6.20;;;2.47;;
75928;SDS011;64606;44.062;2.986;2023-07-28T08:43:36;3.63;;;2.47;;
75928;SDS011;64606;44.062;2.986;2023-07-28T08:46:02;5.63;;;2.67;;
75928;SDS011;64606;44.062;2.986;2023-07-28T08:48:29;4.15;;;2.40;;
75928;SDS011;64606;44.062;2.986;2023-07-28T08:50:55;3.85;;;2.55;;
75928;SDS011;64606;44.062;2.986;2023-07-28T08:53:21;3.50;;;2.20;;
75928;SDS011;64606;44.062;2.986;2023-07-28T08:55:48;3.13;;;2.20;;
75928;SDS011;64606;44.062;2.986;2023-07-28T08:58:14;4.30;;;2.65;;
75928;SDS011;64606;44.062;2.986;2023-07-28T09:00:41;6.07;;;2.35;;
75928;SDS011;64606;44.062;2.986;2023-07-28T09:03:10;3.65;;;2.22;;
75928;SDS011;64606;44.062;2.986;2023-07-28T09:05:36;4.63;;;2.40;;
75928;SDS011;64606;44.062;2.986;2023-07-28T09:08:05;3.53;;;2.10;;
75928;SDS011;64606;44.062;2.986;2023-07-28T09:10:41;4.28;;;2.20;;
75928;SDS011;64606;44.062;2.986;2023-07-28T09:13:11;3.80;;;2.00;;
75928;SDS011;64606;44.062;2.986;2023-07-28T09:15:37;3.65;;;2.10;;
75928;SDS011;64606;44.062;2.986;2023-07-28T09:18:03;4.60;;;2.13;;
75928;SDS011;64606;44.062;2.986;2023-07-28T09:20:33;5.05;;;2.28;;
75928;SDS011;64606;44.062;2.986;2023-07-28T09:23:00;9.27;;;2.28;;
75928;SDS011;64606;44.062;2.986;2023-07-28T09:25:28;7.18;;;2.70;;
75928;SDS011;64606;44.062;2.986;2023-07-28T09:27:55;6.47;;;2.03;;
75928;SDS011;64606;44.062;2.986;2023-07-28T09:30:21;5.60;;;2.30;;
75928;SDS011;64606;44.062;2.986;2023-07-28T09:32:48;4.35;;;2.13;;
75928;SDS011;64606;44.062;2.986;2023-07-28T09:35:15;5.40;;;1.90;;
75928;SDS011;64606;44.062;2.986;2023-07-28T09:37:45;5.10;;;2.20;;
75928;SDS011;64606;44.062;2.986;2023-07-28T09:40:20;3.97;;;2.33;;
75928;SDS011;64606;44.062;2.986;2023-07-28T09:42:46;4.28;;;2.10;;
75928;SDS011;64606;44.062;2.986;2023-07-28T09:45:16;4.07;;;1.98;;
75928;SDS011;64606;44.062;2.986;2023-07-28T09:47:46;2.53;;;1.90;;
75928;SDS011;64606;44.062;2.986;2023-07-28T09:50:16;2.20;;;1.63;;
75928;SDS011;64606;44.062;2.986;2023-07-28T09:52:45;6.13;;;2.38;;
75928;SDS011;64606;44.062;2.986;2023-07-28T09:55:12;2.70;;;1.73;;
75928;SDS011;64606;44.062;2.986;2023-07-28T09:57:45;4.22;;;2.00;;
75928;SDS011;64606;44.062;2.986;2023-07-28T10:00:13;4.75;;;2.00;;
75928;SDS011;64606;44.062;2.986;2023-07-28T10:02:39;4.10;;;1.85;;
75928;SDS011;64606;44.062;2.986;2023-07-28T10:05:06;6.00;;;2.30;;
75928;SDS011;64606;44.062;2.986;2023-07-28T10:07:35;3.35;;;1.90;;
75928;SDS011;64606;44.062;2.986;2023-07-28T10:10:06;5.78;;;2.03;;
75928;SDS011;64606;44.062;2.986;2023-07-28T10:12:48;5.18;;;1.90;;
75928;SDS011;64606;44.062;2.986;2023-07-28T10:15:18;2.47;;;2.00;;
75928;SDS011;64606;44.062;2.986;2023-07-28T10:17:45;4.38;;;1.70;;
75928;SDS011;64606;44.062;2.986;2023-07-28T10:20:28;5.47;;;1.80;;
75928;SDS011;64606;44.062;2.986;2023-07-28T10:28:36;5.28;;;1.85;;
75928;SDS011;64606;44.062;2.986;2023-07-28T10:31:07;3.50;;;1.90;;
75928;SDS011;64606;44.062;2.986;2023-07-28T10:33:39;5.15;;;2.40;;
75928;SDS011;64606;44.062;2.986;2023-07-28T10:36:15;3.22;;;2.13;;
75928;SDS011;64606;44.062;2.986;2023-07-28T10:38:41;2.10;;;1.83;;
75928;SDS011;64606;44.062;2.986;2023-07-28T10:43:35;2.55;;;1.88;;
75928;SDS011;64606;44.062;2.986;2023-07-28T10:46:01;3.08;;;1.95;;
75928;SDS011;64606;44.062;2.986;2023-07-28T10:48:27;4.07;;;1.88;;
75928;SDS011;64606;44.062;2.986;2023-07-28T10:50:53;3.60;;;2.00;;
75928;SDS011;64606;44.062;2.986;2023-07-28T10:53:20;3.00;;;2.25;;
75928;SDS011;64606;44.062;2.986;2023-07-28T10:55:46;3.95;;;2.10;;
75928;SDS011;64606;44.062;2.986;2023-07-28T10:58:12;5.82;;;1.90;;
75928;SDS011;64606;44.062;2.986;2023-07-28T11:00:39;4.18;;;2.03;;
75928;SDS011;64606;44.062;2.986;2023-07-28T11:03:07;4.72;;;2.10;;
75928;SDS011;64606;44.062;2.986;2023-07-28T11:05:35;2.30;;;2.00;;
75928;SDS011;64606;44.062;2.986;2023-07-28T11:08:02;3.28;;;2.13;;
75928;SDS011;64606;44.062;2.986;2023-07-28T11:10:29;4.22;;;2.17;;
75928;SDS011;64606;44.062;2.986;2023-07-28T11:12:57;5.97;;;2.25;;
75928;SDS011;64606;44.062;2.986;2023-07-28T11:15:24;5.45;;;2.10;;
75928;SDS011;64606;44.062;2.986;2023-07-28T11:17:51;5.60;;;2.25;;
75928;SDS011;64606;44.062;2.986;2023-07-28T11:20:18;4.25;;;2.33;;
75928;SDS011;64606;44.062;2.986;2023-07-28T11:22:45;3.47;;;2.20;;
75928;SDS011;64606;44.062;2.986;2023-07-28T11:25:11;4.70;;;2.00;;
75928;SDS011;64606;44.062;2.986;2023-07-28T11:27:38;4.90;;;2.05;;
75928;SDS011;64606;44.062;2.986;2023-07-28T11:30:04;5.32;;;2.42;;
75928;SDS011;64606;44.062;2.986;2023-07-28T11:32:36;4.53;;;2.10;;
75928;SDS011;64606;44.062;2.986;2023-07-28T11:35:08;3.45;;;2.05;;
75928;SDS011;64606;44.062;2.986;2023-07-28T11:37:35;4.57;;;2.20;;
75928;SDS011;64606;44.062;2.986;2023-07-28T11:40:02;4.50;;;2.20;;
75928;SDS011;64606;44.062;2.986;2023-07-28T11:42:34;3.15;;;2.10;;
75928;SDS011;64606;44.062;2.986;2023-07-28T11:45:02;4.75;;;2.20;;
75928;SDS011;64606;44.062;2.986;2023-07-28T11:47:28;3.15;;;2.28;;
75928;SDS011;64606;44.062;2.986;2023-07-28T11:49:55;3.53;;;2.40;;
75928;SDS011;64606;44.062;2.986;2023-07-28T11:52:24;4.28;;;2.17;;
75928;SDS011;64606;44.062;2.986;2023-07-28T11:54:51;5.95;;;2.20;;
75928;SDS011;64606;44.062;2.986;2023-07-28T11:57:18;4.18;;;2.08;;
75928;SDS011;64606;44.062;2.986;2023-07-28T11:59:44;4.63;;;2.40;;
75928;SDS011;64606;44.062;2.986;2023-07-28T12:02:10;4.88;;;2.38;;
75928;SDS011;64606;44.062;2.986;2023-07-28T12:04:37;4.45;;;2.50;;
75928;SDS011;64606;44.062;2.986;2023-07-28T12:09:33;3.83;;;2.15;;
75928;SDS011;64606;44.062;2.986;2023-07-28T12:11:59;4.95;;;2.20;;
75928;SDS011;64606;44.062;2.986;2023-07-28T12:14:32;3.47;;;2.30;;
75928;SDS011;64606;44.062;2.986;2023-07-28T12:16:59;2.50;;;2.10;;
75928;SDS011;64606;44.062;2.986;2023-07-28T12:19:26;6.57;;;2.10;;
75928;SDS011;64606;44.062;2.986;2023-07-28T12:21:52;4.88;;;2.30;;
75928;SDS011;64606;44.062;2.986;2023-07-28T12:24:18;5.57;;;2.30;;
75928;SDS011;64606;44.062;2.986;2023-07-28T12:26:45;6.10;;;2.33;;
75928;SDS011;64606;44.062;2.986;2023-07-28T12:29:12;5.00;;;2.08;;
75928;SDS011;64606;44.062;2.986;2023-07-28T12:31:39;4.32;;;2.30;;
75928;SDS011;64606;44.062;2.986;2023-07-28T12:34:05;3.20;;;2.00;;
75928;SDS011;64606;44.062;2.986;2023-07-28T12:36:31;4.60;;;2.28;;
75928;SDS011;64606;44.062;2.986;2023-07-28T12:38:57;3.72;;;2.22;;
75928;SDS011;64606;44.062;2.986;2023-07-28T12:41:23;4.60;;;2.20;;
75928;SDS011;64606;44.062;2.986;2023-07-28T12:43:49;6.03;;;2.40;;
75928;SDS011;64606;44.062;2.986;2023-07-28T12:46:15;5.07;;;2.42;;
75928;SDS011;64606;44.062;2.986;2023-07-28T12:48:41;4.97;;;2.30;;
75928;SDS011;64606;44.062;2.986;2023-07-28T12:51:07;4.88;;;2.22;;
75928;SDS011;64606;44.062;2.986;2023-07-28T12:53:34;3.80;;;2.30;;
75928;SDS011;64606;44.062;2.986;2023-07-28T12:56:00;4.30;;;1.90;;
75928;SDS011;64606;44.062;2.986;2023-07-28T12:58:26;2.47;;;1.90;;
75928;SDS011;64606;44.062;2.986;2023-07-28T13:00:53;2.28;;;1.90;;
75928;SDS011;64606;44.062;2.986;2023-07-28T13:03:21;2.47;;;1.98;;
75928;SDS011;64606;44.062;2.986;2023-07-28T13:05:47;2.75;;;2.10;;
75928;SDS011;64606;44.062;2.986;2023-07-28T13:08:13;3.15;;;2.20;;
75928;SDS011;64606;44.062;2.986;2023-07-28T13:10:39;3.75;;;1.92;;
75928;SDS011;64606;44.062;2.986;2023-07-28T13:13:05;3.47;;;2.20;;
75928;SDS011;64606;44.062;2.986;2023-07-28T13:15:31;4.18;;;2.30;;
75928;SDS011;64606;44.062;2.986;2023-07-28T13:17:58;5.38;;;2.17;;
75928;SDS011;64606;44.062;2.986;2023-07-28T13:20:24;3.63;;;2.17;;
75928;SDS011;64606;44.062;2.986;2023-07-28T13:22:50;5.30;;;2.35;;
75928;SDS011;64606;44.062;2.986;2023-07-28T13:25:16;5.72;;;2.10;;
75928;SDS011;64606;44.062;2.986;2023-07-28T13:27:42;3.55;;;1.85;;
75928;SDS011;64606;44.062;2.986;2023-07-28T13:30:08;4.18;;;2.15;;
75928;SDS011;64606;44.062;2.986;2023-07-28T13:32:35;4.93;;;2.00;;
75928;SDS011;64606;44.062;2.986;2023-07-28T13:35:01;3.35;;;2.10;;
75928;SDS011;64606;44.062;2.986;2023-07-28T13:37:27;2.95;;;1.88;;
75928;SDS011;64606;44.062;2.986;2023-07-28T13:39:53;5.35;;;2.55;;
75928;SDS011;64606;44.062;2.986;2023-07-28T13:42:19;4.13;;;2.05;;
75928;SDS011;64606;44.062;2.986;2023-07-28T13:44:45;5.32;;;2.08;;
75928;SDS011;64606;44.062;2.986;2023-07-28T13:47:12;4.75;;;2.10;;
75928;SDS011;64606;44.062;2.986;2023-07-28T13:49:38;5.00;;;1.90;;
75928;SDS011;64606;44.062;2.986;2023-07-28T13:52:04;2.85;;;1.77;;
75928;SDS011;64606;44.062;2.986;2023-07-28T13:54:31;5.13;;;2.35;;
75928;SDS011;64606;44.062;2.986;2023-07-28T13:56:57;5.03;;;2.10;;
75928;SDS011;64606;44.062;2.986;2023-07-28T13:59:23;3.00;;;1.90;;
75928;SDS011;64606;44.062;2.986;2023-07-28T14:01:49;3.97;;;2.10;;
75928;SDS011;64606;44.062;2.986;2023-07-28T14:04:15;5.72;;;1.92;;
75928;SDS011;64606;44.062;2.986;2023-07-28T14:06:42;3.83;;;2.17;;
75928;SDS011;64606;44.062;2.986;2023-07-28T14:09:08;3.40;;;2.10;;
75928;SDS011;64606;44.062;2.986;2023-07-28T14:11:34;2.40;;;1.80;;
75928;SDS011;64606;44.062;2.986;2023-07-28T14:14:01;2.70;;;1.90;;
75928;SDS011;64606;44.062;2.986;2023-07-28T14:16:27;4.93;;;2.25;;
75928;SDS011;64606;44.062;2.986;2023-07-28T14:18:53;6.30;;;2.13;;
75928;SDS011;64606;44.062;2.986;2023-07-28T14:21:20;4.25;;;2.03;;
75928;SDS011;64606;44.062;2.986;2023-07-28T14:23:46;3.05;;;1.88;;
75928;SDS011;64606;44.062;2.986;2023-07-28T14:26:12;5.18;;;2.15;;
75928;SDS011;64606;44.062;2.986;2023-07-28T14:28:38;3.65;;;1.90;;
75928;SDS011;64606;44.062;2.986;2023-07-28T14:31:04;4.30;;;2.00;;
75928;SDS011;64606;44.062;2.986;2023-07-28T14:33:30;2.50;;;2.05;;
75928;SDS011;64606;44.062;2.986;2023-07-28T14:35:56;3.53;;;1.67;;
75928;SDS011;64606;44.062;2.986;2023-07-28T14:38:22;3.75;;;2.13;;
75928;SDS011;64606;44.062;2.986;2023-07-28T14:40:49;2.63;;;1.60;;
75928;SDS011;64606;44.062;2.986;2023-07-28T14:43:17;3.15;;;1.90;;
75928;SDS011;64606;44.062;2.986;2023-07-28T14:45:43;2.55;;;1.83;;
75928;SDS011;64606;44.062;2.986;2023-07-28T14:48:09;3.55;;;1.80;;
75928;SDS011;64606;44.062;2.986;2023-07-28T14:50:36;2.05;;;1.80;;
75928;SDS011;64606;44.062;2.986;2023-07-28T14:53:02;2.88;;;1.80;;
75928;SDS011;64606;44.062;2.986;2023-07-28T14:55:28;2.47;;;1.92;;
75928;SDS011;64606;44.062;2.986;2023-07-28T14:57:54;3.47;;;1.92;;
75928;SDS011;64606;44.062;2.986;2023-07-28T15:00:20;2.72;;;1.75;;